Time;durP1;ratioP1;P1;durP2;ratioP2;P2;SDS_P1;SDS_P2;PMS_P1;PMS_P2;Temp;Humidity;BMP_temperature;BMP_pressure;BME280_temperature;BME280_humidity;BME280_pressure;Samples;Min_cycle;Max_cycle;Signal;HPM_P1;HPM_P2
2022/12/05 00:00:18;;;;;;;19.70;8.20;;;5.60;80.00;;;;;;5035374;28;20051;-69
2022/12/05 00:02:47;;;;;;;21.05;8.60;;;5.60;79.90;;;;;;5052102;28;20087;-69
2022/12/05 00:05:14;;;;;;;17.37;7.60;;;5.60;79.80;;;;;;5052158;28;20136;-70
2022/12/05 00:07:41;;;;;;;18.70;8.30;;;5.60;79.80;;;;;;5035567;28;20856;-70
2022/12/05 00:10:09;;;;;;;20.23;8.52;;;5.60;79.80;;;;;;5068889;28;20530;-70
2022/12/05 00:12:36;;;;;;;18.90;7.68;;;5.70;79.70;;;;;;5051542;28;20063;-70
2022/12/05 00:15:04;;;;;;;17.58;7.55;;;5.60;79.70;;;;;;5069996;28;20163;-70
2022/12/05 00:17:32;;;;;;;18.80;7.93;;;5.70;79.70;;;;;;5051825;28;20089;-69
2022/12/05 00:20:00;;;;;;;19.33;9.18;;;5.70;79.70;;;;;;5069898;28;20296;-70
2022/12/05 00:22:28;;;;;;;19.20;8.52;;;5.70;79.80;;;;;;5052030;28;20497;-69
2022/12/05 00:24:56;;;;;;;17.67;8.38;;;5.70;79.80;;;;;;5070415;28;20597;-70
2022/12/05 00:27:23;;;;;;;18.77;8.00;;;5.70;79.70;;;;;;5050484;28;20041;-69
2022/12/05 00:29:50;;;;;;;20.67;9.17;;;5.70;79.70;;;;;;5069529;28;20834;-69
2022/12/05 00:32:17;;;;;;;21.52;9.98;;;5.80;79.70;;;;;;5051668;28;21167;-70
2022/12/05 00:34:44;;;;;;;21.15;9.55;;;5.70;79.60;;;;;;5070047;28;20144;-70
2022/12/05 00:37:12;;;;;;;17.88;7.70;;;5.70;79.60;;;;;;5048060;28;20041;-69
2022/12/05 00:39:39;;;;;;;21.25;9.63;;;5.80;79.60;;;;;;5031422;28;20055;-69
2022/12/05 00:42:06;;;;;;;20.03;8.97;;;5.70;79.50;;;;;;5034181;28;20349;-70
2022/12/05 00:44:34;;;;;;;20.23;9.07;;;5.70;79.70;;;;;;5050499;28;20343;-70
2022/12/05 00:47:01;;;;;;;22.38;9.27;;;5.70;79.50;;;;;;5051473;28;20422;-70
2022/12/05 00:49:29;;;;;;;20.23;9.00;;;5.70;79.70;;;;;;5051046;28;20056;-70
2022/12/05 00:51:57;;;;;;;23.35;9.88;;;5.80;79.60;;;;;;5035093;28;20051;-70
2022/12/05 00:54:25;;;;;;;20.00;9.43;;;5.70;79.50;;;;;;5051741;28;20052;-70
2022/12/05 00:56:55;;;;;;;21.00;9.68;;;5.70;79.50;;;;;;5051991;28;20288;-70
2022/12/05 00:59:22;;;;;;;20.98;9.25;;;5.80;79.60;;;;;;5051521;28;20292;-70
2022/12/05 01:01:51;;;;;;;22.05;9.02;;;5.70;79.60;;;;;;5049939;28;20049;-70
2022/12/05 01:04:21;;;;;;;23.23;10.05;;;5.70;79.60;;;;;;5085367;28;20060;-70
2022/12/05 01:06:48;;;;;;;23.47;10.70;;;5.70;79.60;;;;;;5051296;28;20045;-70
2022/12/05 01:09:17;;;;;;;22.38;9.27;;;5.70;79.70;;;;;;5069008;28;20366;-70
2022/12/05 01:11:46;;;;;;;22.48;9.48;;;5.70;79.70;;;;;;5084627;28;20053;-70
2022/12/05 01:14:14;;;;;;;23.42;9.77;;;5.70;79.80;;;;;;5069646;28;20045;-70
2022/12/05 01:16:43;;;;;;;22.38;9.75;;;5.70;79.80;;;;;;5069533;28;20077;-70
2022/12/05 01:19:13;;;;;;;21.60;9.93;;;5.70;79.80;;;;;;5049548;28;20063;-70
2022/12/05 01:21:41;;;;;;;24.15;10.07;;;5.70;79.80;;;;;;5051360;28;20284;-69
2022/12/05 01:24:08;;;;;;;23.25;10.45;;;5.70;79.90;;;;;;5051327;28;20049;-68
2022/12/05 01:26:36;;;;;;;23.45;10.55;;;5.70;79.90;;;;;;5051300;28;20606;-69
2022/12/05 01:29:04;;;;;;;25.65;10.25;;;5.70;80.00;;;;;;5068999;28;20119;-68
2022/12/05 01:31:33;;;;;;;22.30;10.17;;;5.80;80.10;;;;;;5084696;28;20049;-69
2022/12/05 01:34:03;;;;;;;23.23;10.95;;;5.80;80.10;;;;;;5069333;28;20325;-69
2022/12/05 01:36:30;;;;;;;23.92;10.55;;;5.80;80.00;;;;;;5049560;28;20053;-69
2022/12/05 01:38:58;;;;;;;23.83;10.35;;;5.80;80.10;;;;;;5068824;28;20080;-69
2022/12/05 01:41:27;;;;;;;23.80;10.85;;;5.80;80.20;;;;;;5051179;28;20136;-68
2022/12/05 01:44:01;;;;;;;25.40;10.70;;;5.80;80.20;;;;;;5051041;28;20079;-69
2022/12/05 01:46:32;;;;;;;26.67;10.60;;;5.80;80.30;;;;;;5050468;28;20694;-69
2022/12/05 01:49:05;;;;;;;24.63;10.48;;;5.80;80.30;;;;;;5053064;28;20049;-69
2022/12/05 01:51:34;;;;;;;27.65;10.98;;;5.80;80.40;;;;;;5054377;28;20144;-69
2022/12/05 01:54:02;;;;;;;23.20;10.88;;;5.80;80.40;;;;;;5071329;28;20087;-69
2022/12/05 01:56:31;;;;;;;26.43;11.00;;;5.80;80.50;;;;;;5054315;28;20040;-69
2022/12/05 01:59:01;;;;;;;25.17;10.82;;;5.80;80.60;;;;;;5072062;28;20275;-69
2022/12/05 02:01:30;;;;;;;26.60;11.05;;;5.90;80.70;;;;;;5054071;28;20049;-69
2022/12/05 02:03:58;;;;;;;25.58;11.07;;;5.80;80.70;;;;;;5072296;28;20128;-69
2022/12/05 02:06:27;;;;;;;27.27;11.57;;;5.80;80.80;;;;;;5045872;28;20060;-69
2022/12/05 02:08:55;;;;;;;26.43;10.93;;;5.80;80.90;;;;;;5033796;28;20060;-69
2022/12/05 02:11:24;;;;;;;28.20;11.27;;;5.80;81.00;;;;;;5047681;28;20276;-69
2022/12/05 02:14:13;;;;;;;23.73;11.18;;;5.80;81.20;;;;;;5053685;28;20045;-69
2022/12/05 02:16:50;;;;;;;26.65;11.18;;;5.90;81.20;;;;;;5054252;28;20055;-69
2022/12/05 02:19:44;;;;;;;28.55;11.52;;;5.90;81.20;;;;;;5053482;28;20053;-69
2022/12/05 02:22:34;;;;;;;26.97;11.73;;;5.90;81.20;;;;;;5033618;28;20133;-69
2022/12/05 02:25:53;;;;;;;25.20;11.32;;;6.00;81.20;;;;;;5037210;28;20741;-69
2022/12/05 02:28:56;;;;;;;28.27;11.70;;;5.90;81.50;;;;;;5052398;28;20149;-69
2022/12/05 02:31:28;;;;;;;31.80;12.73;;;6.00;81.50;;;;;;5070316;28;20049;-68
2022/12/05 02:34:05;;;;;;;32.17;12.02;;;6.00;81.50;;;;;;5053818;28;20126;-69
2022/12/05 02:36:39;;;;;;;28.13;11.83;;;6.00;81.50;;;;;;5071600;28;20061;-69
2022/12/05 02:39:14;;;;;;;33.10;13.52;;;6.00;81.50;;;;;;5086779;28;20804;-69
2022/12/05 02:41:50;;;;;;;30.20;13.00;;;6.00;81.60;;;;;;5071534;28;20056;-69
2022/12/05 02:44:22;;;;;;;34.03;13.48;;;6.00;81.70;;;;;;5051256;28;20056;-68
2022/12/05 02:46:52;;;;;;;31.23;12.32;;;6.00;81.70;;;;;;5072115;28;20144;-69
2022/12/05 02:49:24;;;;;;;29.87;13.17;;;6.00;81.80;;;;;;5053233;28;20525;-69
2022/12/05 02:51:56;;;;;;;28.90;12.80;;;6.00;81.80;;;;;;5053806;28;20762;-69
2022/12/05 02:54:25;;;;;;;32.75;13.18;;;6.00;81.90;;;;;;5071336;28;20139;-69
2022/12/05 02:56:53;;;;;;;31.95;13.27;;;6.10;81.90;;;;;;5053780;28;20103;-68
2022/12/05 02:59:21;;;;;;;31.60;13.88;;;6.10;81.90;;;;;;5069935;28;20565;-69
2022/12/05 03:01:50;;;;;;;31.13;13.37;;;6.10;82.00;;;;;;5069914;28;20076;-69
2022/12/05 03:04:19;;;;;;;29.80;12.88;;;6.10;81.90;;;;;;5053072;28;20264;-69
2022/12/05 03:06:51;;;;;;;33.63;13.05;;;6.10;82.10;;;;;;5071522;28;20142;-69
2022/12/05 03:09:23;;;;;;;29.27;11.90;;;6.20;82.00;;;;;;5035840;28;20142;-69
2022/12/05 03:11:54;;;;;;;31.83;12.70;;;6.20;82.10;;;;;;5070566;28;20041;-69
2022/12/05 03:14:28;;;;;;;32.23;12.70;;;6.20;82.00;;;;;;5070955;28;20053;-69
2022/12/05 03:17:02;;;;;;;27.25;11.52;;;6.20;82.00;;;;;;5052900;28;20252;-69
2022/12/05 03:19:36;;;;;;;28.45;12.48;;;6.20;82.20;;;;;;5050730;28;20706;-69
2022/12/05 03:22:08;;;;;;;30.25;13.35;;;6.20;82.10;;;;;;5071472;28;20053;-69
2022/12/05 03:24:37;;;;;;;28.85;11.32;;;6.20;82.20;;;;;;5052282;28;20439;-69
2022/12/05 03:27:13;;;;;;;32.00;12.77;;;6.20;82.20;;;;;;5052890;28;20494;-69
2022/12/05 03:29:50;;;;;;;29.17;11.27;;;6.20;82.20;;;;;;5052332;28;20892;-68
2022/12/05 03:32:24;;;;;;;28.85;12.10;;;6.20;82.30;;;;;;5052751;28;20052;-69
2022/12/05 03:35:01;;;;;;;26.95;11.82;;;6.20;82.30;;;;;;5052609;28;20049;-69
2022/12/05 03:37:34;;;;;;;29.35;11.93;;;6.20;82.30;;;;;;5034976;28;20100;-69
2022/12/05 03:40:07;;;;;;;27.33;11.63;;;6.20;82.30;;;;;;5070644;28;20049;-69
2022/12/05 03:42:36;;;;;;;24.20;11.35;;;6.30;82.40;;;;;;5052899;28;20272;-69
2022/12/05 03:45:08;;;;;;;23.50;10.82;;;6.20;82.40;;;;;;5052357;28;20053;-69
2022/12/05 03:47:45;;;;;;;25.58;9.63;;;6.30;82.50;;;;;;5052768;28;20053;-69
2022/12/05 03:50:16;;;;;;;23.98;10.45;;;6.30;82.50;;;;;;5040022;28;20144;-69
2022/12/05 03:52:47;;;;;;;22.10;9.03;;;6.30;82.50;;;;;;5016103;28;20135;-69
2022/12/05 03:55:16;;;;;;;21.60;9.95;;;6.30;82.60;;;;;;5083395;28;20339;-69
2022/12/05 03:57:50;;;;;;;21.17;9.25;;;6.30;82.60;;;;;;5052342;28;20503;-69
2022/12/05 04:00:20;;;;;;;18.23;8.30;;;6.30;82.60;;;;;;5051948;28;20053;-69
2022/12/05 04:02:53;;;;;;;20.05;8.90;;;6.30;82.60;;;;;;5052280;28;20076;-69
2022/12/05 04:05:24;;;;;;;18.97;8.80;;;6.30;82.70;;;;;;5051861;28;20055;-69
2022/12/05 04:07:55;;;;;;;19.55;7.80;;;6.40;82.70;;;;;;5070413;28;20267;-69
2022/12/05 04:10:27;;;;;;;19.98;8.55;;;6.40;82.70;;;;;;5049817;28;20049;-69
2022/12/05 04:12:58;;;;;;;20.63;8.18;;;6.40;82.70;;;;;;5070218;28;20066;-69
2022/12/05 04:17:02;;;;;;;19.92;8.85;;;6.40;82.70;;;;;;5035489;28;20476;-69
2022/12/05 04:18:23;;;;;;;18.07;7.97;;;6.40;82.70;;;;;;5069731;28;20115;-69
2022/12/05 04:23:37;;;;;;;16.88;7.60;;;6.50;82.70;;;;;;5052291;28;20049;-69
2022/12/05 04:26:11;;;;;;;16.77;7.43;;;6.50;82.60;;;;;;5052362;28;20049;-69
2022/12/05 04:28:45;;;;;;;15.45;7.45;;;6.50;82.70;;;;;;5068947;28;20052;-69
2022/12/05 04:31:18;;;;;;;15.93;7.23;;;6.50;82.70;;;;;;5051890;28;21057;-69
2022/12/05 04:33:50;;;;;;;15.00;7.03;;;6.50;82.70;;;;;;5052258;28;20343;-69
2022/12/05 04:36:22;;;;;;;14.20;7.05;;;6.50;82.70;;;;;;5052005;28;20041;-69
2022/12/05 04:38:52;;;;;;;15.70;7.10;;;6.50;82.70;;;;;;5070171;28;20517;-69
2022/12/05 04:41:24;;;;;;;12.77;6.72;;;6.50;82.70;;;;;;5069820;28;20045;-68
2022/12/05 04:43:54;;;;;;;13.47;6.50;;;6.50;82.80;;;;;;5051560;28;20045;-69
2022/12/05 04:46:22;;;;;;;14.40;7.03;;;6.50;82.80;;;;;;5068043;28;20278;-69
2022/12/05 04:48:55;;;;;;;13.98;6.68;;;6.50;82.80;;;;;;5051755;28;20120;-69
2022/12/05 04:51:26;;;;;;;12.55;6.63;;;6.50;82.80;;;;;;5070321;28;20045;-69
2022/12/05 04:53:56;;;;;;;13.40;6.50;;;6.50;82.90;;;;;;5069901;28;20132;-69
2022/12/05 04:56:27;;;;;;;13.63;6.20;;;6.50;82.90;;;;;;5054848;28;20136;-69
2022/12/05 04:58:54;;;;;;;13.48;6.10;;;6.50;82.90;;;;;;5049487;28;20742;-69
2022/12/05 05:01:26;;;;;;;12.85;6.05;;;6.50;82.90;;;;;;5049232;28;20063;-69
2022/12/05 05:03:59;;;;;;;11.63;6.00;;;6.60;82.90;;;;;;5048044;28;20629;-69
2022/12/05 05:06:27;;;;;;;13.27;6.07;;;6.50;82.90;;;;;;5051582;28;20051;-69
2022/12/05 05:08:56;;;;;;;9.60;5.27;;;6.50;83.00;;;;;;5069946;28;20057;-69
2022/12/05 05:11:24;;;;;;;10.05;5.18;;;6.60;83.00;;;;;;5051246;28;20256;-69
2022/12/05 05:13:53;;;;;;;10.73;5.00;;;6.50;83.00;;;;;;5051417;28;20186;-69
2022/12/05 05:16:21;;;;;;;10.45;5.07;;;6.50;83.00;;;;;;5051496;28;20049;-69
2022/12/05 05:18:50;;;;;;;9.52;4.35;;;6.60;83.00;;;;;;5051423;28;20412;-69
2022/12/05 05:21:21;;;;;;;8.53;3.57;;;6.60;83.00;;;;;;5050128;28;20610;-69
2022/12/05 05:23:48;;;;;;;7.70;3.90;;;6.60;83.00;;;;;;5072258;28;20353;-69
2022/12/05 05:26:16;;;;;;;7.88;3.72;;;6.60;83.00;;;;;;5054794;28;20041;-69
2022/12/05 05:28:46;;;;;;;7.43;3.30;;;6.50;83.10;;;;;;5072681;28;20049;-69
2022/12/05 05:31:14;;;;;;;8.43;3.38;;;6.50;83.00;;;;;;5054154;28;20050;-69
2022/12/05 05:33:41;;;;;;;7.10;3.33;;;6.50;83.10;;;;;;5052437;28;20072;-69
2022/12/05 05:36:10;;;;;;;6.00;2.65;;;6.60;83.10;;;;;;5070022;28;20266;-69
2022/12/05 05:38:39;;;;;;;6.43;3.20;;;6.60;83.20;;;;;;5054251;28;20048;-69
2022/12/05 05:41:26;;;;;;;6.10;2.70;;;6.60;83.20;;;;;;5054259;28;20041;-69
2022/12/05 05:43:54;;;;;;;5.95;2.83;;;6.50;83.20;;;;;;5054713;28;20052;-69
2022/12/05 05:46:23;;;;;;;6.17;2.93;;;6.60;83.20;;;;;;5053640;28;20053;-69
2022/12/05 05:48:51;;;;;;;5.97;3.05;;;6.60;83.20;;;;;;5052387;28;20344;-69
2022/12/05 05:51:19;;;;;;;6.35;2.78;;;6.60;83.20;;;;;;5070498;28;20126;-68
2022/12/05 05:53:49;;;;;;;5.70;2.70;;;6.60;83.30;;;;;;5071204;28;20530;-69
2022/12/05 05:56:18;;;;;;;6.40;2.63;;;6.60;83.30;;;;;;5054907;28;20048;-69
2022/12/05 05:58:45;;;;;;;6.67;3.00;;;6.60;83.30;;;;;;5072495;28;20693;-69
2022/12/05 06:01:15;;;;;;;6.75;3.15;;;6.60;83.30;;;;;;5037277;28;20268;-69
2022/12/05 06:03:42;;;;;;;5.95;3.00;;;6.60;83.40;;;;;;5053498;28;20056;-68
2022/12/05 06:06:12;;;;;;;5.85;2.90;;;6.60;83.40;;;;;;5053918;28;20053;-69
2022/12/05 06:08:43;;;;;;;7.18;3.05;;;6.60;83.40;;;;;;5071924;28;20658;-69
2022/12/05 06:11:13;;;;;;;8.70;3.47;;;6.60;83.50;;;;;;5051692;28;20124;-69
2022/12/05 06:13:40;;;;;;;6.05;2.78;;;6.60;83.50;;;;;;5053183;28;20284;-69
2022/12/05 06:16:10;;;;;;;7.00;3.10;;;6.60;83.50;;;;;;5071628;28;20063;-69
2022/12/05 06:18:37;;;;;;;6.88;2.90;;;6.60;83.50;;;;;;5071778;28;20119;-68
2022/12/05 06:21:07;;;;;;;6.05;3.10;;;6.60;83.60;;;;;;5053099;28;20041;-69
2022/12/05 06:23:35;;;;;;;6.63;3.30;;;6.60;83.60;;;;;;5053701;28;20060;-69
2022/12/05 06:26:03;;;;;;;6.97;3.45;;;6.60;83.60;;;;;;5053413;28;20268;-69
2022/12/05 06:28:32;;;;;;;7.25;3.53;;;6.60;83.60;;;;;;5051950;28;20107;-69
2022/12/05 06:30:59;;;;;;;5.63;2.45;;;6.60;83.70;;;;;;5052325;28;20132;-69
2022/12/05 06:33:28;;;;;;;6.75;3.00;;;6.60;83.70;;;;;;5053105;28;20076;-68
2022/12/05 06:36:04;;;;;;;6.53;2.80;;;6.60;83.70;;;;;;5065196;28;20053;-69
2022/12/05 06:38:31;;;;;;;5.93;2.88;;;6.60;83.80;;;;;;5070750;28;20734;-69
2022/12/05 06:40:58;;;;;;;5.90;2.97;;;6.60;83.70;;;;;;5071030;28;20140;-68
2022/12/05 06:43:26;;;;;;;5.72;2.80;;;6.60;83.80;;;;;;5053077;28;20064;-69
2022/12/05 06:45:54;;;;;;;5.72;2.60;;;6.60;83.70;;;;;;5052855;28;20131;-69
2022/12/05 06:48:21;;;;;;;5.63;2.37;;;6.60;83.80;;;;;;5051745;28;20124;-69
2022/12/05 06:50:50;;;;;;;5.32;2.40;;;6.60;83.70;;;;;;5070995;28;20838;-69
2022/12/05 06:53:17;;;;;;;5.32;2.22;;;6.60;83.80;;;;;;5052898;28;20892;-69
2022/12/05 06:55:44;;;;;;;5.07;2.10;;;6.60;83.80;;;;;;5052892;28;20049;-69
2022/12/05 06:58:11;;;;;;;5.05;1.90;;;6.60;83.80;;;;;;5036364;28;20547;-69
2022/12/05 07:03:24;;;;;;;5.25;2.22;;;6.60;83.90;;;;;;5068923;28;20304;-69
2022/12/05 07:05:52;;;;;;;5.03;2.20;;;6.60;83.90;;;;;;5050624;28;20049;-69
2022/12/05 07:08:19;;;;;;;4.63;2.10;;;6.70;83.90;;;;;;5052622;28;20081;-69
2022/12/05 07:10:52;;;;;;;5.38;2.20;;;6.70;83.80;;;;;;5051843;28;20047;-69
2022/12/05 07:13:19;;;;;;;5.87;2.47;;;6.70;83.90;;;;;;5070809;28;20049;-69
2022/12/05 07:15:46;;;;;;;5.50;2.60;;;6.70;83.80;;;;;;5052813;28;20276;-69
2022/12/05 07:18:14;;;;;;;6.07;2.80;;;6.70;83.90;;;;;;5070444;28;20096;-69
2022/12/05 07:20:43;;;;;;;5.45;2.20;;;6.70;83.80;;;;;;5076474;28;20809;-69
2022/12/05 07:23:11;;;;;;;6.32;2.58;;;6.70;83.80;;;;;;5058461;28;20049;-69
2022/12/05 07:25:39;;;;;;;7.10;2.90;;;6.70;83.90;;;;;;5079961;28;20052;-69
2022/12/05 07:28:07;;;;;;;6.35;2.85;;;6.70;83.80;;;;;;5078601;28;20248;-69
2022/12/05 07:30:35;;;;;;;6.47;2.75;;;6.70;83.80;;;;;;5059666;28;20076;-69
2022/12/05 07:33:04;;;;;;;5.95;2.50;;;6.70;83.90;;;;;;5074958;28;20160;-69
2022/12/05 07:35:31;;;;;;;7.50;3.05;;;6.70;83.90;;;;;;5074862;28;20139;-69
2022/12/05 07:38:03;;;;;;;6.17;2.73;;;6.70;83.90;;;;;;5078542;28;20049;-69
2022/12/05 07:40:30;;;;;;;5.68;2.53;;;6.70;83.90;;;;;;5058891;28;20244;-69
2022/12/05 07:42:58;;;;;;;6.38;2.83;;;6.70;83.90;;;;;;5061611;28;20060;-69
2022/12/05 07:45:25;;;;;;;6.03;2.90;;;6.70;83.90;;;;;;5060202;28;20049;-69
2022/12/05 07:47:53;;;;;;;6.90;3.28;;;6.70;84.00;;;;;;5060464;28;20128;-69
2022/12/05 07:50:20;;;;;;;7.10;3.40;;;6.70;83.90;;;;;;5079342;28;20075;-69
2022/12/05 07:52:47;;;;;;;5.03;2.42;;;6.70;83.90;;;;;;5061149;28;20284;-69
2022/12/05 07:55:16;;;;;;;5.93;2.78;;;6.70;84.00;;;;;;5062070;28;20053;-69
2022/12/05 07:57:43;;;;;;;8.18;3.33;;;6.70;84.00;;;;;;5073229;28;20076;-69
2022/12/05 08:00:11;;;;;;;6.53;2.80;;;6.70;84.00;;;;;;5059235;28;20114;-69
2022/12/05 08:02:42;;;;;;;6.80;3.10;;;6.70;84.00;;;;;;5051906;28;20080;-69
2022/12/05 08:05:09;;;;;;;7.63;3.45;;;6.70;83.90;;;;;;5057889;28;20298;-69
2022/12/05 08:07:36;;;;;;;7.88;3.63;;;6.70;84.00;;;;;;5061355;28;20052;-69
2022/12/05 08:10:05;;;;;;;7.78;3.05;;;6.70;84.00;;;;;;5076955;28;20049;-69
2022/12/05 08:12:33;;;;;;;7.75;3.53;;;6.70;84.00;;;;;;5071932;28;20172;-69
2022/12/05 08:15:00;;;;;;;7.53;3.20;;;6.70;84.00;;;;;;5049886;28;20124;-69
2022/12/05 08:17:31;;;;;;;9.52;3.35;;;6.70;84.00;;;;;;5069734;28;20928;-69
2022/12/05 08:19:58;;;;;;;9.00;3.80;;;6.70;84.00;;;;;;5051589;28;20045;-68
2022/12/05 08:22:25;;;;;;;7.38;3.78;;;6.70;84.00;;;;;;5051406;28;20052;-69
2022/12/05 08:24:52;;;;;;;8.73;3.60;;;6.70;84.00;;;;;;5065380;28;20100;-69
2022/12/05 08:27:19;;;;;;;9.20;3.87;;;6.70;84.00;;;;;;5031811;28;20052;-69
2022/12/05 08:29:48;;;;;;;9.25;3.58;;;6.70;84.00;;;;;;5034383;28;20263;-69
2022/12/05 08:32:15;;;;;;;7.78;3.70;;;6.70;84.10;;;;;;5072643;28;20051;-69
2022/12/05 08:34:42;;;;;;;8.65;3.83;;;6.70;84.10;;;;;;5061290;28;20049;-69
2022/12/05 08:37:09;;;;;;;9.32;3.80;;;6.70;84.10;;;;;;5060358;28;20743;-69
2022/12/05 08:39:36;;;;;;;9.17;3.80;;;6.70;84.10;;;;;;5060373;28;20530;-69
2022/12/05 08:42:04;;;;;;;8.90;3.50;;;6.70;84.10;;;;;;5051345;28;20405;-69
2022/12/05 08:44:31;;;;;;;9.05;3.75;;;6.70;84.10;;;;;;5051067;28;20057;-69
2022/12/05 08:46:59;;;;;;;10.85;4.30;;;6.80;84.10;;;;;;5044028;28;20048;-69
2022/12/05 08:49:27;;;;;;;8.30;3.55;;;6.70;84.00;;;;;;5057120;28;20140;-69
2022/12/05 08:51:54;;;;;;;11.17;3.53;;;6.80;84.00;;;;;;5060729;28;20136;-69
2022/12/05 08:54:21;;;;;;;8.43;3.80;;;6.80;84.00;;;;;;5083419;28;20256;-69
2022/12/05 08:56:51;;;;;;;8.35;3.45;;;6.80;84.00;;;;;;5062630;28;20649;-69
2022/12/05 08:59:18;;;;;;;7.82;3.72;;;6.80;84.00;;;;;;5070378;28;20055;-69
2022/12/05 09:01:45;;;;;;;9.70;3.95;;;6.80;84.00;;;;;;5082480;28;20045;-69
2022/12/05 09:04:13;;;;;;;10.30;3.60;;;6.80;84.00;;;;;;5058245;28;20046;-70
2022/12/05 09:06:41;;;;;;;8.93;3.65;;;6.80;84.00;;;;;;5055615;28;20311;-69
2022/12/05 09:09:10;;;;;;;8.48;4.07;;;6.80;84.00;;;;;;5069413;28;20053;-69
2022/12/05 09:11:40;;;;;;;8.98;3.55;;;6.80;83.90;;;;;;5071163;28;20064;-69
2022/12/05 09:14:07;;;;;;;8.68;3.80;;;6.80;83.80;;;;;;5071344;28;20146;-69
2022/12/05 09:16:36;;;;;;;10.13;3.80;;;6.70;83.80;;;;;;5053568;28;20045;-70
2022/12/05 09:19:03;;;;;;;7.13;3.47;;;6.80;83.90;;;;;;5037424;28;20259;-69
2022/12/05 09:21:32;;;;;;;8.70;3.33;;;6.70;83.90;;;;;;5058645;28;20103;-69
2022/12/05 09:24:00;;;;;;;7.78;3.45;;;6.70;83.90;;;;;;5080102;28;20053;-70
2022/12/05 09:26:28;;;;;;;8.25;3.60;;;6.70;83.80;;;;;;5083599;28;20053;-69
2022/12/05 09:28:57;;;;;;;8.53;3.67;;;6.70;83.90;;;;;;5062713;28;20465;-70
2022/12/05 09:31:26;;;;;;;9.65;3.78;;;6.70;83.90;;;;;;5072175;28;20457;-70
2022/12/05 09:33:54;;;;;;;8.88;4.07;;;6.70;83.80;;;;;;5090356;28;20053;-70
2022/12/05 09:36:23;;;;;;;10.32;4.03;;;6.70;83.80;;;;;;5090349;28;20131;-70
2022/12/05 09:38:53;;;;;;;10.82;3.72;;;6.70;83.70;;;;;;5076957;28;20045;-69
2022/12/05 09:42:07;;;;;;;8.83;3.77;;;6.70;83.80;;;;;;5067818;28;20049;-70
2022/12/05 09:44:58;;;;;;;7.78;3.25;;;6.70;83.90;;;;;;5090318;28;20760;-70
2022/12/05 09:47:35;;;;;;;8.43;3.67;;;6.70;83.80;;;;;;5085549;28;20106;-70
2022/12/05 09:50:12;;;;;;;9.27;3.70;;;6.70;83.70;;;;;;5052438;28;20037;-70
2022/12/05 09:52:43;;;;;;;8.45;3.78;;;6.70;83.80;;;;;;5062704;28;20479;-70
2022/12/05 09:55:16;;;;;;;10.20;4.07;;;6.70;83.80;;;;;;5060882;28;20069;-69
2022/12/05 09:57:48;;;;;;;7.65;3.63;;;6.70;83.90;;;;;;5077247;28;20259;-70
2022/12/05 10:00:16;;;;;;;8.48;3.50;;;6.70;83.80;;;;;;5059718;28;20056;-70
2022/12/05 10:02:53;;;;;;;8.43;3.70;;;6.70;83.70;;;;;;5089741;28;20603;-70
2022/12/05 10:05:26;;;;;;;9.80;4.03;;;6.70;83.80;;;;;;5091374;28;20140;-69
2022/12/05 10:08:02;;;;;;;9.47;4.20;;;6.70;83.70;;;;;;5064114;28;20136;-69
2022/12/05 10:10:39;;;;;;;9.27;3.90;;;6.70;83.70;;;;;;5089747;28;20811;-70
2022/12/05 10:13:16;;;;;;;10.48;4.18;;;6.70;83.80;;;;;;5089043;28;20045;-70
2022/12/05 10:15:47;;;;;;;8.43;3.53;;;6.70;83.70;;;;;;5061054;28;20049;-69
2022/12/05 10:18:23;;;;;;;9.13;3.85;;;6.70;83.70;;;;;;5063160;28;20041;-69
2022/12/05 10:20:54;;;;;;;9.57;4.27;;;6.80;83.70;;;;;;5045138;28;20136;-69
2022/12/05 10:23:25;;;;;;;9.30;4.20;;;6.70;83.70;;;;;;5062676;28;20307;-70
2022/12/05 10:25:58;;;;;;;8.35;3.30;;;6.80;83.70;;;;;;5082127;28;20056;-69
2022/12/05 10:28:33;;;;;;;10.10;3.60;;;6.80;83.70;;;;;;5062287;28;20514;-69
2022/12/05 10:31:05;;;;;;;8.40;3.90;;;6.80;83.70;;;;;;5078844;28;20146;-69
2022/12/05 10:33:38;;;;;;;8.30;4.00;;;6.80;83.70;;;;;;5060132;28;20348;-69
2022/12/05 10:36:13;;;;;;;7.55;3.83;;;6.80;83.70;;;;;;5054878;28;20255;-69
2022/12/05 10:38:42;;;;;;;8.07;3.70;;;6.80;83.70;;;;;;5086404;28;20049;-70
2022/12/05 10:41:11;;;;;;;8.07;3.95;;;6.80;83.60;;;;;;5061370;28;20053;-70
2022/12/05 10:43:41;;;;;;;8.75;3.67;;;6.80;83.60;;;;;;5063192;28;20055;-69
2022/12/05 10:46:10;;;;;;;8.10;3.10;;;6.80;83.70;;;;;;5071627;28;20872;-69
2022/12/05 10:48:39;;;;;;;7.45;3.05;;;6.80;83.70;;;;;;5052368;28;20252;-69
2022/12/05 10:51:07;;;;;;;6.78;3.03;;;6.80;83.70;;;;;;5062091;28;20049;-69
2022/12/05 10:53:40;;;;;;;8.50;3.72;;;6.80;83.60;;;;;;5070207;28;20053;-70
2022/12/05 10:56:40;;;;;;;10.35;3.72;;;6.80;83.60;;;;;;5076258;28;20138;-69
2022/12/05 10:59:09;;;;;;;8.83;3.50;;;6.80;83.70;;;;;;5084980;28;20168;-70
2022/12/05 11:01:37;;;;;;;7.38;3.10;;;6.80;83.70;;;;;;5065521;28;20264;-70
2022/12/05 11:04:10;;;;;;;7.35;3.40;;;6.80;83.70;;;;;;5080377;28;20164;-70
2022/12/05 11:06:38;;;;;;;8.50;3.35;;;6.80;83.80;;;;;;5076391;28;20048;-70
2022/12/05 11:09:19;;;;;;;9.98;3.47;;;6.90;83.80;;;;;;5049988;28;20503;-70
2022/12/05 11:12:03;;;;;;;8.60;3.67;;;6.90;83.70;;;;;;5057738;28;20047;-70
2022/12/05 11:14:32;;;;;;;8.18;3.53;;;6.90;83.70;;;;;;5050991;28;20270;-69
2022/12/05 11:17:01;;;;;;;9.27;3.70;;;6.90;83.60;;;;;;5075460;28;20156;-69
2022/12/05 11:19:31;;;;;;;9.55;3.80;;;6.90;83.60;;;;;;5059355;28;20064;-70
2022/12/05 11:21:59;;;;;;;8.43;3.78;;;6.90;83.50;;;;;;5037131;28;20142;-69
2022/12/05 11:24:28;;;;;;;8.53;3.57;;;6.90;83.60;;;;;;5052006;28;20045;-69
2022/12/05 11:26:59;;;;;;;9.40;3.97;;;6.90;83.60;;;;;;5033873;28;20258;-69
2022/12/05 11:29:33;;;;;;;7.25;3.45;;;6.90;83.50;;;;;;5051710;28;20049;-69
2022/12/05 11:32:00;;;;;;;8.23;3.70;;;6.90;83.50;;;;;;5051975;28;20148;-68
2022/12/05 11:34:33;;;;;;;8.43;3.90;;;6.80;83.60;;;;;;5084934;28;20048;-69
2022/12/05 11:37:05;;;;;;;8.27;3.53;;;6.90;83.60;;;;;;5073930;28;20154;-69
2022/12/05 11:39:33;;;;;;;9.23;3.70;;;6.80;83.50;;;;;;5049711;28;20423;-69
2022/12/05 11:42:30;;;;;;;7.13;3.00;;;6.80;83.60;;;;;;5053781;28;20049;-69
2022/12/05 11:45:16;;;;;;;8.38;3.50;;;6.80;83.60;;;;;;5045567;28;20136;-69
2022/12/05 11:48:13;;;;;;;6.90;3.08;;;6.80;83.50;;;;;;5074801;28;20153;-69
2022/12/05 11:50:50;;;;;;;8.83;3.30;;;6.80;83.50;;;;;;5083892;28;20049;-69
2022/12/05 11:53:40;;;;;;;8.63;3.22;;;6.80;83.50;;;;;;5054741;28;20411;-69
2022/12/05 11:56:21;;;;;;;7.55;2.78;;;6.80;83.50;;;;;;5058421;28;20049;-69
2022/12/05 11:59:11;;;;;;;6.88;3.08;;;6.80;83.60;;;;;;5081449;28;20048;-69
2022/12/05 12:01:52;;;;;;;7.60;3.20;;;6.80;83.60;;;;;;5032610;28;20128;-69
2022/12/05 12:04:49;;;;;;;7.73;3.10;;;6.80;83.60;;;;;;5050328;28;20053;-69
2022/12/05 12:07:37;;;;;;;8.15;3.13;;;6.80;83.60;;;;;;5067936;28;20998;-70
2022/12/05 12:10:18;;;;;;;6.45;3.00;;;6.80;83.60;;;;;;5068218;28;20140;-70
2022/12/05 12:12:55;;;;;;;6.15;2.50;;;6.80;83.60;;;;;;5068069;28;20549;-70
2022/12/05 12:15:45;;;;;;;6.57;2.40;;;6.90;83.60;;;;;;5049774;28;20171;-70
2022/12/05 12:18:32;;;;;;;5.17;2.27;;;6.90;83.70;;;;;;5050077;28;20085;-70
2022/12/05 12:21:13;;;;;;;5.88;2.00;;;6.90;83.60;;;;;;5067627;28;20370;-69
2022/12/05 12:23:55;;;;;;;5.28;2.00;;;6.90;83.70;;;;;;5051716;28;20955;-70
2022/12/05 12:26:32;;;;;;;5.32;2.05;;;6.90;83.70;;;;;;5069490;28;20479;-70
2022/12/05 12:29:08;;;;;;;6.32;2.15;;;6.90;83.70;;;;;;5069192;28;20215;-69
2022/12/05 12:31:52;;;;;;;6.63;2.40;;;6.90;83.70;;;;;;5072860;28;20129;-70
2022/12/05 12:34:41;;;;;;;5.00;1.98;;;6.90;83.70;;;;;;5050347;28;20264;-70
2022/12/05 12:37:15;;;;;;;6.22;2.17;;;6.90;83.70;;;;;;5051210;28;20593;-70
2022/12/05 12:39:49;;;;;;;5.15;1.90;;;6.90;83.70;;;;;;5067546;28;20525;-70
2022/12/05 12:42:23;;;;;;;5.00;1.98;;;6.90;83.70;;;;;;5069972;28;20084;-69
2022/12/05 12:45:15;;;;;;;4.73;1.90;;;6.90;83.80;;;;;;5051600;28;20107;-70
2022/12/05 12:48:00;;;;;;;5.18;2.00;;;6.90;83.90;;;;;;5040038;28;20383;-70
2022/12/05 12:50:32;;;;;;;5.70;1.95;;;6.90;83.80;;;;;;5050989;28;20053;-70
2022/12/05 12:53:31;;;;;;;5.07;2.10;;;6.90;83.80;;;;;;5051030;28;20106;-70
2022/12/05 12:56:04;;;;;;;5.50;2.20;;;6.90;83.80;;;;;;5051084;28;20481;-70
2022/12/05 12:58:44;;;;;;;5.63;2.20;;;6.90;83.90;;;;;;5049628;28;20487;-70
2022/12/05 13:01:21;;;;;;;5.47;1.77;;;6.90;83.90;;;;;;5069040;28;20303;-70
2022/12/05 13:04:01;;;;;;;5.28;1.85;;;6.90;83.90;;;;;;5048962;28;20077;-70
2022/12/05 13:06:32;;;;;;;4.22;1.60;;;6.90;83.90;;;;;;5063799;28;20088;-70
2022/12/05 13:09:03;;;;;;;5.75;2.58;;;6.90;83.90;;;;;;5050757;28;20049;-70
2022/12/05 13:11:36;;;;;;;4.57;1.87;;;6.90;84.00;;;;;;5069013;28;20057;-70
2022/12/05 13:14:09;;;;;;;4.97;1.75;;;6.90;83.90;;;;;;5069219;28;21355;-70
2022/12/05 13:16:40;;;;;;;5.05;2.00;;;6.90;83.90;;;;;;5049367;28;20479;-70
2022/12/05 13:19:23;;;;;;;4.90;1.73;;;6.90;83.90;;;;;;5050674;28;20587;-70